Time;durP1;ratioP1;P1;durP2;ratioP2;P2;SDS_P1;SDS_P2;PMS_P1;PMS_P2;Temp;Humidity;BMP_temperature;BMP_pressure;BME280_temperature;BME280_humidity;BME280_pressure;Samples;Min_cycle;Max_cycle;Signal;HPM_P1;HPM_P2
2021/03/06 00:00:00;;;;;;;15.40;10.00;;;3.70;99.90;;;;;;5123506;28;20627;-65
2021/03/06 00:02:26;;;;;;;16.67;9.83;;;3.80;99.90;;;;;;5125844;28;20251;-65
2021/03/06 00:04:51;;;;;;;13.17;9.20;;;3.70;99.90;;;;;;5126206;28;20166;-65
2021/03/06 00:07:17;;;;;;;12.50;9.77;;;3.60;99.90;;;;;;5124864;28;20167;-65
2021/03/06 00:09:43;;;;;;;17.47;10.13;;;3.50;99.90;;;;;;5124101;28;20163;-65
2021/03/06 00:12:09;;;;;;;17.37;9.97;;;3.50;99.90;;;;;;5124977;28;20555;-65
2021/03/06 00:14:34;;;;;;;15.87;10.17;;;3.40;99.90;;;;;;5125979;28;20186;-65
2021/03/06 00:17:00;;;;;;;15.90;10.33;;;3.30;99.90;;;;;;5126113;28;20245;-65
2021/03/06 00:19:27;;;;;;;16.63;10.20;;;3.40;99.90;;;;;;5126092;28;20159;-65
2021/03/06 00:21:53;;;;;;;18.00;11.03;;;3.40;99.90;;;;;;5123454;28;20192;-65
2021/03/06 00:24:19;;;;;;;21.67;9.87;;;3.50;99.90;;;;;;5125903;28;20158;-65
2021/03/06 00:26:44;;;;;;;16.73;9.67;;;3.40;99.90;;;;;;5125602;28;20166;-66
2021/03/06 00:29:10;;;;;;;18.07;10.23;;;3.30;99.90;;;;;;5125909;28;20243;-65
2021/03/06 00:31:37;;;;;;;13.83;9.50;;;3.00;99.90;;;;;;5123213;28;20158;-65
2021/03/06 00:34:03;;;;;;;14.90;9.87;;;2.70;99.90;;;;;;5124419;28;20244;-64
2021/03/06 00:36:29;;;;;;;15.07;9.73;;;2.50;99.90;;;;;;5124645;28;20162;-65
2021/03/06 00:38:55;;;;;;;16.43;9.90;;;2.50;99.90;;;;;;5127580;28;20216;-64
2021/03/06 00:41:21;;;;;;;15.57;8.70;;;2.70;99.90;;;;;;5126958;28;20171;-65
2021/03/06 00:43:46;;;;;;;14.80;10.23;;;2.80;99.90;;;;;;5129488;28;20252;-65
2021/03/06 00:46:12;;;;;;;13.83;10.70;;;2.90;99.90;;;;;;5129642;28;20166;-65
2021/03/06 00:48:37;;;;;;;15.87;10.80;;;2.90;99.90;;;;;;5129499;28;20569;-66
2021/03/06 00:51:04;;;;;;;14.57;9.33;;;2.90;99.90;;;;;;5127017;28;20659;-65
2021/03/06 00:53:29;;;;;;;13.43;8.87;;;2.90;99.90;;;;;;5127874;28;20186;-65
2021/03/06 00:55:55;;;;;;;13.87;8.80;;;2.90;99.90;;;;;;5129215;28;20179;-65
2021/03/06 00:58:20;;;;;;;13.73;9.60;;;2.90;99.90;;;;;;5129449;28;20196;-65
2021/03/06 01:00:46;;;;;;;14.13;9.67;;;3.00;99.90;;;;;;5126751;28;20159;-65
2021/03/06 01:03:12;;;;;;;12.13;9.80;;;3.30;99.90;;;;;;5129061;28;20182;-65
2021/03/06 01:05:37;;;;;;;15.43;9.13;;;3.30;99.90;;;;;;5129100;28;20178;-65
2021/03/06 01:08:05;;;;;;;17.13;10.00;;;3.00;99.90;;;;;;5129071;28;20516;-65
2021/03/06 01:10:35;;;;;;;17.80;9.50;;;2.80;99.90;;;;;;5126429;28;20651;-66
2021/03/06 01:13:01;;;;;;;10.67;9.30;;;2.80;99.90;;;;;;5128656;28;20197;-65
2021/03/06 01:15:26;;;;;;;20.67;8.93;;;2.70;99.90;;;;;;5128883;28;20226;-64
2021/03/06 01:17:52;;;;;;;13.23;8.97;;;2.60;99.90;;;;;;5129164;28;20158;-65
2021/03/06 01:20:18;;;;;;;15.00;8.23;;;2.60;99.90;;;;;;5126059;28;20151;-65
2021/03/06 01:22:45;;;;;;;16.40;8.03;;;2.70;99.90;;;;;;5127350;28;20174;-65
2021/03/06 01:25:12;;;;;;;14.97;8.30;;;2.70;99.90;;;;;;5128813;28;20163;-64
2021/03/06 01:27:37;;;;;;;12.00;8.17;;;2.70;99.90;;;;;;5128352;28;20274;-65
2021/03/06 01:30:05;;;;;;;17.43;8.53;;;2.60;99.90;;;;;;5124931;28;20177;-65
2021/03/06 01:32:30;;;;;;;12.07;8.07;;;2.50;99.90;;;;;;5128527;28;20257;-65
2021/03/06 01:34:56;;;;;;;12.27;7.70;;;2.40;99.90;;;;;;5128764;28;20158;-65
2021/03/06 01:37:22;;;;;;;15.73;7.57;;;2.40;99.90;;;;;;5127596;28;20624;-65
2021/03/06 01:39:47;;;;;;;13.17;7.83;;;2.40;99.90;;;;;;5126132;28;20223;-65
2021/03/06 01:42:13;;;;;;;13.73;7.40;;;2.40;99.90;;;;;;5128144;28;20178;-65
2021/03/06 01:44:39;;;;;;;13.20;7.67;;;2.50;99.90;;;;;;5128296;28;20359;-65
2021/03/06 01:47:05;;;;;;;10.27;7.07;;;2.50;99.90;;;;;;5128334;28;20197;-65
2021/03/06 01:49:30;;;;;;;10.53;7.60;;;2.50;99.90;;;;;;5127447;28;20195;-65
2021/03/06 01:51:57;;;;;;;12.63;7.40;;;2.50;99.90;;;;;;5124805;28;20171;-65
2021/03/06 01:54:25;;;;;;;14.10;7.80;;;2.70;99.90;;;;;;5126859;28;20166;-65
2021/03/06 01:56:52;;;;;;;16.37;8.13;;;2.60;99.90;;;;;;5128213;28;20173;-65
2021/03/06 01:59:19;;;;;;;11.50;8.23;;;2.60;99.90;;;;;;5128161;28;20185;-65
2021/03/06 02:01:45;;;;;;;13.40;8.63;;;2.60;99.90;;;;;;5125294;28;20193;-65
2021/03/06 02:04:10;;;;;;;14.17;8.37;;;2.60;99.90;;;;;;5128001;28;20188;-65
2021/03/06 02:06:36;;;;;;;19.17;8.47;;;3.00;99.90;;;;;;5128052;28;20154;-65
2021/03/06 02:09:03;;;;;;;11.73;7.97;;;3.10;99.90;;;;;;5128011;28;20241;-65
2021/03/06 02:11:37;;;;;;;12.37;7.50;;;3.00;99.90;;;;;;5124897;28;20701;-65
2021/03/06 02:14:29;;;;;;;16.43;8.30;;;2.80;99.90;;;;;;5127727;28;20194;-65
2021/03/06 02:17:04;;;;;;;17.70;8.10;;;2.90;99.90;;;;;;5127674;28;20163;-65
2021/03/06 02:20:08;;;;;;;12.87;7.97;;;2.70;99.90;;;;;;5127169;28;20219;-65
2021/03/06 02:23:06;;;;;;;11.70;7.03;;;2.50;99.90;;;;;;5127626;28;20245;-65
2021/03/06 02:25:35;;;;;;;11.13;7.20;;;2.20;99.90;;;;;;5127574;28;20249;-65
2021/03/06 02:28:27;;;;;;;18.70;8.40;;;2.10;99.90;;;;;;5127449;28;20284;-65
2021/03/06 02:30:55;;;;;;;11.70;7.50;;;2.10;99.90;;;;;;5124934;28;20165;-65
2021/03/06 02:33:26;;;;;;;10.17;7.43;;;2.00;99.90;;;;;;5127472;28;20296;-65
2021/03/06 02:35:53;;;;;;;12.83;7.53;;;1.90;99.90;;;;;;5127607;28;20159;-65
2021/03/06 02:38:23;;;;;;;10.30;8.00;;;2.10;99.90;;;;;;5127195;28;20180;-65
2021/03/06 02:40:50;;;;;;;17.07;8.30;;;2.30;99.90;;;;;;5124787;28;20158;-65
2021/03/06 02:43:16;;;;;;;15.63;8.53;;;2.30;99.90;;;;;;5127191;28;20170;-65
2021/03/06 02:45:42;;;;;;;14.70;8.47;;;2.30;99.90;;;;;;5127175;28;20186;-65
2021/03/06 02:48:08;;;;;;;14.13;8.07;;;2.30;99.90;;;;;;5127218;28;20173;-65
2021/03/06 02:50:34;;;;;;;14.63;8.53;;;2.20;99.90;;;;;;5124584;28;20166;-65
2021/03/06 02:52:59;;;;;;;13.17;7.80;;;2.20;99.90;;;;;;5126936;28;20226;-65
2021/03/06 02:55:25;;;;;;;19.67;8.70;;;2.10;99.90;;;;;;5127218;28;20167;-65
2021/03/06 02:58:09;;;;;;;15.50;8.03;;;2.20;99.90;;;;;;5126879;28;20226;-65
2021/03/06 03:00:37;;;;;;;16.93;8.30;;;2.50;99.90;;;;;;5123951;28;20188;-65
2021/03/06 03:03:22;;;;;;;16.47;8.93;;;2.70;99.90;;;;;;5126613;28;20193;-65
2021/03/06 03:06:13;;;;;;;18.37;9.43;;;3.00;99.90;;;;;;5126905;28;20180;-65
2021/03/06 03:09:01;;;;;;;12.50;8.57;;;3.10;99.90;;;;;;5126809;28;20566;-65
2021/03/06 03:11:57;;;;;;;15.07;8.77;;;2.90;99.90;;;;;;5123786;28;20166;-66
2021/03/06 03:14:32;;;;;;;19.10;8.93;;;2.40;99.90;;;;;;5126793;28;20181;-65
2021/03/06 03:17:12;;;;;;;16.20;9.33;;;2.10;99.90;;;;;;5125588;28;20163;-65
2021/03/06 03:19:54;;;;;;;20.30;8.30;;;2.10;99.90;;;;;;5125181;28;20211;-65
2021/03/06 03:22:22;;;;;;;16.07;8.30;;;2.10;99.90;;;;;;5126400;28;20525;-65
2021/03/06 03:24:51;;;;;;;12.83;8.37;;;2.10;99.90;;;;;;5126574;28;20216;-65
2021/03/06 03:27:18;;;;;;;14.60;9.23;;;2.00;99.90;;;;;;5125942;28;20206;-65
2021/03/06 03:29:45;;;;;;;12.87;8.50;;;2.00;99.90;;;;;;5124566;28;20636;-65
2021/03/06 03:32:11;;;;;;;14.93;8.33;;;1.90;99.90;;;;;;5125978;28;20206;-65
2021/03/06 03:34:39;;;;;;;14.43;8.77;;;1.80;99.90;;;;;;5126372;28;20185;-65
2021/03/06 03:37:08;;;;;;;14.20;8.57;;;1.70;99.90;;;;;;5126687;28;20165;-65
2021/03/06 03:39:34;;;;;;;15.97;9.43;;;1.80;99.90;;;;;;5125478;28;20645;-65
2021/03/06 03:42:01;;;;;;;16.90;8.90;;;1.90;99.90;;;;;;5124763;28;20174;-65
2021/03/06 03:44:27;;;;;;;12.93;8.33;;;2.00;99.90;;;;;;5126133;28;20162;-65
2021/03/06 03:46:54;;;;;;;15.53;9.27;;;1.80;99.90;;;;;;5126464;28;20195;-65
2021/03/06 03:49:21;;;;;;;15.03;8.63;;;1.70;99.90;;;;;;5126293;28;20155;-65
2021/03/06 03:51:47;;;;;;;13.67;8.63;;;1.60;99.90;;;;;;5123522;28;20163;-66
2021/03/06 03:54:15;;;;;;;19.87;9.30;;;1.50;99.90;;;;;;5126106;28;20257;-65
2021/03/06 03:56:41;;;;;;;17.47;8.83;;;1.50;99.90;;;;;;5126000;28;20170;-65
2021/03/06 03:59:07;;;;;;;12.60;8.70;;;1.40;99.90;;;;;;5126359;28;20662;-65
2021/03/06 04:01:43;;;;;;;11.83;7.83;;;1.30;99.90;;;;;;5123515;28;20166;-65
2021/03/06 04:04:23;;;;;;;15.07;8.40;;;1.30;99.90;;;;;;5126250;28;20304;-65
2021/03/06 04:06:48;;;;;;;12.77;8.13;;;1.40;99.90;;;;;;5126272;28;20514;-65
2021/03/06 04:09:14;;;;;;;11.10;8.87;;;1.30;99.90;;;;;;5126214;28;20192;-65
2021/03/06 04:11:40;;;;;;;14.97;8.90;;;1.30;99.90;;;;;;5123143;28;20173;-65
2021/03/06 04:14:06;;;;;;;10.47;8.10;;;1.20;99.90;;;;;;5129848;28;20195;-65
2021/03/06 04:16:32;;;;;;;18.33;9.40;;;1.30;99.90;;;;;;5130171;28;20163;-65
2021/03/06 04:18:57;;;;;;;16.27;9.40;;;1.30;99.90;;;;;;5130154;28;20597;-65
2021/03/06 04:21:23;;;;;;;12.47;8.97;;;1.40;99.90;;;;;;5126406;28;20253;-65
2021/03/06 04:23:48;;;;;;;18.90;9.77;;;1.50;99.90;;;;;;5129796;28;20198;-65
2021/03/06 04:26:14;;;;;;;19.47;9.63;;;1.50;99.90;;;;;;5129890;28;20173;-65
2021/03/06 04:28:40;;;;;;;15.53;9.47;;;1.60;99.90;;;;;;5129919;28;20214;-66
2021/03/06 04:31:05;;;;;;;16.27;9.87;;;1.60;99.90;;;;;;5127383;28;20527;-65
2021/03/06 04:33:31;;;;;;;15.93;9.83;;;1.50;99.90;;;;;;5129503;28;20685;-65
2021/03/06 04:35:56;;;;;;;23.17;10.00;;;1.50;99.90;;;;;;5129832;28;20186;-65
2021/03/06 04:38:22;;;;;;;12.13;9.67;;;1.50;99.90;;;;;;5129814;28;20222;-65
2021/03/06 04:40:48;;;;;;;17.27;9.87;;;1.60;99.90;;;;;;5126953;28;20155;-65
2021/03/06 04:43:13;;;;;;;17.97;9.60;;;1.60;99.90;;;;;;5129322;28;20206;-65
2021/03/06 04:45:39;;;;;;;12.40;9.67;;;1.60;99.90;;;;;;5129554;28;20195;-65
2021/03/06 04:48:05;;;;;;;21.37;9.87;;;1.80;99.90;;;;;;5129630;28;20238;-65
2021/03/06 04:50:30;;;;;;;17.77;9.90;;;2.00;99.90;;;;;;5126756;28;20159;-65
2021/03/06 04:52:56;;;;;;;15.43;10.37;;;2.00;99.90;;;;;;5129370;28;20279;-65
2021/03/06 04:55:21;;;;;;;16.43;9.83;;;1.90;99.90;;;;;;5129656;28;20324;-65
2021/03/06 04:57:47;;;;;;;19.20;10.47;;;2.00;99.90;;;;;;5129130;28;20177;-65
2021/03/06 05:00:13;;;;;;;16.93;10.70;;;2.00;99.90;;;;;;5126777;28;20159;-65
2021/03/06 05:02:39;;;;;;;19.23;10.93;;;1.80;99.90;;;;;;5129034;28;20166;-65
2021/03/06 05:05:08;;;;;;;21.13;10.30;;;1.70;99.90;;;;;;5129290;28;20155;-66
2021/03/06 05:07:34;;;;;;;19.03;11.10;;;1.60;99.90;;;;;;5129253;28;20155;-65
2021/03/06 05:10:00;;;;;;;23.50;10.40;;;1.40;99.90;;;;;;5126688;27;20159;-65
2021/03/06 05:12:26;;;;;;;15.37;10.37;;;1.20;99.90;;;;;;5128571;28;20280;-65
2021/03/06 05:14:51;;;;;;;19.55;11.45;;;1.00;99.90;;;;;;5128291;28;20470;-65
2021/03/06 05:17:17;;;;;;;22.90;10.30;;;1.30;99.90;;;;;;5129146;28;20214;-66
2021/03/06 05:19:42;;;;;;;17.20;10.53;;;1.20;99.90;;;;;;5127039;28;20178;-66
2021/03/06 05:22:08;;;;;;;13.23;9.30;;;1.10;99.90;;;;;;5128226;28;20155;-65
2021/03/06 05:24:33;;;;;;;16.80;9.67;;;1.00;99.90;;;;;;5127660;28;20174;-65
2021/03/06 05:27:02;;;;;;;17.50;9.50;;;1.10;99.90;;;;;;5127082;28;20178;-66
2021/03/06 05:29:29;;;;;;;13.20;9.93;;;1.00;99.90;;;;;;5128573;28;20170;-66
2021/03/06 05:31:55;;;;;;;17.77;9.87;;;1.00;99.90;;;;;;5126724;28;20162;-66
2021/03/06 05:34:21;;;;;;;14.70;9.70;;;1.00;99.90;;;;;;5127276;28;20170;-66
2021/03/06 05:36:46;;;;;;;13.80;9.70;;;0.90;99.90;;;;;;5128594;28;20167;-66
2021/03/06 05:39:12;;;;;;;15.97;10.03;;;0.90;99.90;;;;;;5128576;28;20155;-66
2021/03/06 05:41:38;;;;;;;17.13;9.70;;;0.90;99.90;;;;;;5124321;28;20171;-66
2021/03/06 05:44:04;;;;;;;23.17;9.77;;;0.90;99.90;;;;;;5127020;28;20165;-66
2021/03/06 05:46:31;;;;;;;17.17;10.43;;;1.00;99.90;;;;;;5126982;28;20173;-66
2021/03/06 05:48:57;;;;;;;18.10;9.70;;;1.10;99.90;;;;;;5128404;28;20178;-66
2021/03/06 05:51:24;;;;;;;20.17;9.70;;;1.10;99.90;;;;;;5125965;28;20174;-66
2021/03/06 05:53:52;;;;;;;13.00;10.90;;;1.00;99.90;;;;;;5126904;28;20201;-66
2021/03/06 05:56:19;;;;;;;18.97;10.10;;;1.00;99.90;;;;;;5127751;28;20167;-66
2021/03/06 05:58:48;;;;;;;14.20;9.70;;;1.10;99.90;;;;;;5128166;28;20298;-66
2021/03/06 06:01:15;;;;;;;17.03;10.77;;;1.10;99.90;;;;;;5125576;28;20171;-66
2021/03/06 06:03:41;;;;;;;16.40;10.07;;;1.00;99.90;;;;;;5127898;28;20300;-66
2021/03/06 06:06:09;;;;;;;16.67;10.50;;;0.90;99.90;;;;;;5128176;27;20169;-66
2021/03/06 06:08:35;;;;;;;19.87;11.37;;;0.90;99.90;;;;;;5126477;28;20167;-66
2021/03/06 06:11:03;;;;;;;21.93;10.27;;;0.80;99.90;;;;;;5125377;28;20192;-66
2021/03/06 06:13:28;;;;;;;16.07;10.60;;;0.70;99.90;;;;;;5125999;28;20198;-66
2021/03/06 06:15:55;;;;;;;17.77;10.70;;;0.70;99.90;;;;;;5127943;28;20159;-66
2021/03/06 06:18:21;;;;;;;15.53;10.43;;;0.70;99.90;;;;;;5127819;28;20612;-66
2021/03/06 06:20:47;;;;;;;18.70;10.10;;;0.80;99.90;;;;;;5125175;28;20536;-66
2021/03/06 06:23:16;;;;;;;16.73;10.82;;;0.70;99.90;;;;;;5127171;28;20407;-66
2021/03/06 06:25:42;;;;;;;16.90;10.40;;;0.70;99.90;;;;;;5127540;28;20165;-66
2021/03/06 06:28:08;;;;;;;13.63;9.67;;;0.80;99.90;;;;;;5127298;28;20211;-66
2021/03/06 06:30:34;;;;;;;24.27;11.10;;;0.70;99.90;;;;;;5124922;28;20197;-66
2021/03/06 06:33:01;;;;;;;18.73;13.53;;;0.70;99.90;;;;;;5127239;28;20632;-66
2021/03/06 06:35:27;;;;;;;18.43;11.30;;;0.70;99.90;;;;;;5126719;28;20159;-65
2021/03/06 06:37:56;;;;;;;23.47;14.20;;;0.80;99.90;;;;;;5126299;28;20422;-65
2021/03/06 06:40:24;;;;;;;24.30;12.07;;;1.10;99.90;;;;;;5123565;28;20412;-66
2021/03/06 06:42:50;;;;;;;17.50;10.50;;;1.20;99.90;;;;;;5125583;28;20174;-66
2021/03/06 06:45:16;;;;;;;19.33;12.60;;;1.40;99.90;;;;;;5126252;28;20411;-66
2021/03/06 06:47:47;;;;;;;24.37;12.60;;;1.80;99.90;;;;;;5127307;28;20163;-66
2021/03/06 06:50:15;;;;;;;17.03;12.00;;;1.80;99.90;;;;;;5124482;28;20531;-66
2021/03/06 06:52:42;;;;;;;20.20;13.48;;;1.50;99.90;;;;;;5126069;28;20423;-65
2021/03/06 06:55:10;;;;;;;18.10;12.27;;;1.40;99.90;;;;;;5127003;28;20166;-65
2021/03/06 06:57:54;;;;;;;19.63;12.07;;;1.20;99.90;;;;;;5126663;28;20170;-66
2021/03/06 07:00:21;;;;;;;21.57;13.27;;;1.00;99.90;;;;;;5124180;28;20161;-66
2021/03/06 07:02:55;;;;;;;31.10;13.20;;;1.10;99.90;;;;;;5126604;28;20227;-66
2021/03/06 07:05:27;;;;;;;34.47;15.77;;;1.10;99.90;;;;;;5126730;28;20167;-66
2021/03/06 07:07:53;;;;;;;30.67;15.20;;;1.10;99.90;;;;;;5126812;28;20167;-66
2021/03/06 07:10:21;;;;;;;30.88;17.10;;;1.20;99.90;;;;;;5123039;28;20489;-66
2021/03/06 07:12:58;;;;;;;36.07;16.33;;;1.40;99.90;;;;;;5125712;28;20254;-66
2021/03/06 07:15:25;;;;;;;41.60;18.33;;;1.30;99.90;;;;;;5126463;28;20165;-66
2021/03/06 07:17:56;;;;;;;35.67;19.07;;;1.30;99.90;;;;;;5126621;28;20226;-66
2021/03/06 07:20:22;;;;;;;32.80;18.90;;;1.30;99.90;;;;;;5123895;28;20158;-67
2021/03/06 07:22:48;;;;;;;34.53;19.10;;;1.50;99.90;;;;;;5125648;28;20163;-66
2021/03/06 07:25:14;;;;;;;31.87;17.77;;;1.50;99.90;;;;;;5125797;28;20165;-66
2021/03/06 07:27:41;;;;;;;33.10;17.10;;;1.60;99.90;;;;;;5124928;28;20285;-66
2021/03/06 07:30:08;;;;;;;19.57;14.30;;;1.60;99.90;;;;;;5123634;28;20163;-66
2021/03/06 07:32:37;;;;;;;32.23;14.87;;;1.70;99.90;;;;;;5125354;28;20249;-67
2021/03/06 07:35:06;;;;;;;22.67;14.07;;;1.80;99.90;;;;;;5125902;28;20171;-68
2021/03/06 07:37:32;;;;;;;21.87;13.77;;;1.90;99.90;;;;;;5125807;28;20176;-67
2021/03/06 07:40:00;;;;;;;23.70;13.27;;;1.90;99.90;;;;;;5122939;28;20151;-68
2021/03/06 07:42:29;;;;;;;24.50;13.03;;;2.10;99.90;;;;;;5123857;28;20171;-68
2021/03/06 07:44:56;;;;;;;18.97;12.77;;;2.00;99.90;;;;;;5125940;28;20175;-68
2021/03/06 07:47:28;;;;;;;22.83;12.40;;;2.10;99.90;;;;;;5125802;28;20186;-67
2021/03/06 07:49:56;;;;;;;24.37;12.43;;;2.20;99.90;;;;;;5122046;28;20170;-68
2021/03/06 07:52:22;;;;;;;23.40;12.70;;;2.30;99.90;;;;;;5126078;28;20217;-67
2021/03/06 07:54:49;;;;;;;29.70;12.33;;;2.30;99.90;;;;;;5125758;28;20162;-67
2021/03/06 07:57:14;;;;;;;22.10;12.97;;;2.40;99.90;;;;;;5125122;28;20162;-66
2021/03/06 07:59:53;;;;;;;16.03;12.07;;;2.50;99.90;;;;;;5124147;28;20166;-65
2021/03/06 08:02:37;;;;;;;20.63;12.23;;;2.50;99.90;;;;;;5125935;28;20162;-65
2021/03/06 08:05:06;;;;;;;25.23;12.43;;;2.60;99.90;;;;;;5125498;28;20175;-65
2021/03/06 08:07:44;;;;;;;23.03;11.70;;;2.70;99.90;;;;;;5125711;28;20181;-65
2021/03/06 08:10:11;;;;;;;20.25;13.00;;;2.70;99.90;;;;;;5122521;28;20669;-65
2021/03/06 08:12:38;;;;;;;27.60;13.07;;;3.00;99.90;;;;;;5125534;28;20190;-65
2021/03/06 08:15:30;;;;;;;28.20;12.67;;;3.00;99.90;;;;;;5125558;28;20170;-65
2021/03/06 08:17:57;;;;;;;19.20;13.37;;;3.10;99.90;;;;;;5125615;28;20608;-65
2021/03/06 08:20:31;;;;;;;18.43;13.10;;;3.10;99.90;;;;;;5123286;28;20249;-65
2021/03/06 08:23:20;;;;;;;23.87;16.30;;;3.20;99.90;;;;;;5125322;28;20170;-66
2021/03/06 08:26:17;;;;;;;23.43;15.97;;;3.30;99.90;;;;;;5125710;28;20189;-65
2021/03/06 08:28:43;;;;;;;27.53;16.27;;;3.30;99.90;;;;;;5125027;28;20305;-65
2021/03/06 08:31:38;;;;;;;30.40;15.30;;;3.30;99.90;;;;;;5123020;28;20159;-65
2021/03/06 08:34:32;;;;;;;31.17;18.43;;;3.40;99.90;;;;;;5124165;28;20194;-66
2021/03/06 08:37:22;;;;;;;32.13;22.33;;;3.60;99.90;;;;;;5124272;28;20167;-65
2021/03/06 08:39:59;;;;;;;33.63;19.67;;;3.70;99.90;;;;;;5122789;28;20155;-65
2021/03/06 08:42:28;;;;;;;28.33;19.03;;;3.70;99.90;;;;;;5125336;28;20182;-65
2021/03/06 08:44:58;;;;;;;35.27;20.67;;;3.80;99.90;;;;;;5125628;28;20178;-65
2021/03/06 08:47:24;;;;;;;31.33;21.30;;;3.90;99.90;;;;;;5125797;28;20159;-65
2021/03/06 08:49:58;;;;;;;24.73;18.20;;;4.00;99.90;;;;;;5123184;28;20707;-65
2021/03/06 08:52:25;;;;;;;28.07;17.93;;;4.00;99.90;;;;;;5124436;28;20186;-65
2021/03/06 08:54:51;;;;;;;28.97;17.03;;;4.10;99.90;;;;;;5125520;28;20185;-65
2021/03/06 08:57:39;;;;;;;29.53;16.43;;;4.20;99.90;;;;;;5125466;28;20636;-65
2021/03/06 09:00:33;;;;;;;30.33;16.17;;;4.30;99.90;;;;;;5125026;28;20170;-65
2021/03/06 09:03:17;;;;;;;26.07;14.87;;;4.30;99.90;;;;;;5129143;28;20253;-65
2021/03/06 09:05:45;;;;;;;27.80;14.80;;;4.40;99.90;;;;;;5128955;28;20174;-65
2021/03/06 09:08:11;;;;;;;22.83;14.43;;;4.50;99.90;;;;;;5129176;28;20155;-65
2021/03/06 09:10:42;;;;;;;17.97;13.07;;;4.60;99.90;;;;;;5126400;28;20175;-65
2021/03/06 09:13:19;;;;;;;20.20;13.77;;;4.70;99.90;;;;;;5128686;28;20214;-65
2021/03/06 09:15:45;;;;;;;23.77;14.47;;;4.80;99.90;;;;;;5128808;28;20203;-65
2021/03/06 09:18:14;;;;;;;27.33;12.90;;;4.90;99.90;;;;;;5128929;28;20190;-65
2021/03/06 09:20:44;;;;;;;25.73;13.37;;;5.00;99.90;;;;;;5125847;28;20212;-65
2021/03/06 09:23:09;;;;;;;22.70;13.17;;;5.00;99.90;;;;;;5128432;28;20166;-66
2021/03/06 09:25:40;;;;;;;23.83;12.67;;;5.20;99.90;;;;;;5128008;28;20167;-66
2021/03/06 09:28:11;;;;;;;17.00;12.23;;;5.30;99.90;;;;;;5128347;28;20202;-65
2021/03/06 09:30:41;;;;;;;18.13;11.43;;;5.40;99.90;;;;;;5126030;28;20173;-65
2021/03/06 09:33:34;;;;;;;15.80;11.07;;;5.50;99.90;;;;;;5128439;28;20233;-65
2021/03/06 09:36:14;;;;;;;15.40;10.40;;;5.50;99.90;;;;;;5127852;28;20166;-65
2021/03/06 09:38:50;;;;;;;17.67;10.00;;;5.60;99.90;;;;;;5127746;28;20174;-65
2021/03/06 09:41:23;;;;;;;18.13;10.10;;;5.70;99.90;;;;;;5125736;28;20162;-65
2021/03/06 09:43:56;;;;;;;19.00;10.73;;;5.80;99.90;;;;;;5127464;28;20598;-65
2021/03/06 09:46:27;;;;;;;16.37;10.37;;;6.00;99.90;;;;;;5127914;27;20193;-64
2021/03/06 09:49:03;;;;;;;13.80;9.63;;;6.10;99.90;;;;;;5128278;28;20163;-65
2021/03/06 09:51:43;;;;;;;16.60;9.33;;;6.20;99.90;;;;;;5125635;28;20245;-65
2021/03/06 09:54:10;;;;;;;21.00;11.17;;;6.30;99.90;;;;;;5128146;28;20238;-65
2021/03/06 09:56:48;;;;;;;12.00;9.90;;;6.50;99.90;;;;;;5127395;28;20170;-65
2021/03/06 09:59:14;;;;;;;16.00;10.10;;;6.60;99.90;;;;;;5127832;28;20615;-67
2021/03/06 10:01:40;;;;;;;20.13;9.43;;;6.70;99.90;;;;;;5124967;28;20161;-67
2021/03/06 10:04:17;;;;;;;13.03;8.40;;;6.80;99.90;;;;;;5127608;28;20233;-68
2021/03/06 10:06:45;;;;;;;9.87;7.73;;;6.90;99.90;;;;;;5127334;28;20189;-67
2021/03/06 10:09:13;;;;;;;10.67;8.30;;;7.00;99.90;;;;;;5127579;28;20163;-67
2021/03/06 10:11:44;;;;;;;8.50;7.67;;;7.10;99.90;;;;;;5122972;28;20169;-68
2021/03/06 10:14:12;;;;;;;10.27;7.93;;;7.20;99.90;;;;;;5127852;28;20209;-68
2021/03/06 10:16:52;;;;;;;11.90;7.70;;;7.30;99.90;;;;;;5127378;28;20166;-67
2021/03/06 10:19:20;;;;;;;7.90;6.97;;;7.40;99.90;;;;;;5127164;28;20170;-65
2021/03/06 10:22:01;;;;;;;12.53;6.03;;;7.50;99.90;;;;;;5122039;28;20181;-65
2021/03/06 10:24:27;;;;;;;11.70;6.67;;;7.70;99.90;;;;;;5126546;28;20167;-65
2021/03/06 10:27:03;;;;;;;8.43;6.93;;;7.80;99.90;;;;;;5126987;28;20166;-66
2021/03/06 10:29:30;;;;;;;10.93;6.23;;;8.00;99.90;;;;;;5126951;28;20162;-66
2021/03/06 10:32:00;;;;;;;7.90;6.17;;;8.00;99.90;;;;;;5123818;28;20159;-65
2021/03/06 10:34:36;;;;;;;11.40;5.77;;;8.10;99.90;;;;;;5126678;28;20198;-66
2021/03/06 10:37:08;;;;;;;10.47;5.60;;;8.10;99.90;;;;;;5127214;28;20154;-65
2021/03/06 10:39:34;;;;;;;10.17;5.43;;;8.20;99.90;;;;;;5126088;28;20158;-66
2021/03/06 10:42:00;;;;;;;6.13;5.03;;;8.30;99.90;;;;;;5125278;28;20620;-65
2021/03/06 10:44:39;;;;;;;5.23;4.67;;;8.50;99.90;;;;;;5126417;28;20173;-66
2021/03/06 10:47:04;;;;;;;6.20;4.20;;;8.50;99.90;;;;;;5126564;28;20174;-65
2021/03/06 10:49:41;;;;;;;4.70;4.20;;;8.50;99.90;;;;;;5126315;28;20167;-65
2021/03/06 10:52:21;;;;;;;11.90;4.60;;;8.60;99.90;;;;;;5126270;28;20150;-65
2021/03/06 10:54:52;;;;;;;7.13;4.80;;;8.60;99.90;;;;;;5126293;28;20215;-65
2021/03/06 10:57:17;;;;;;;7.13;4.77;;;8.80;99.90;;;;;;5125153;28;20170;-66
2021/03/06 10:59:43;;;;;;;7.53;4.93;;;8.90;99.90;;;;;;5124751;28;20245;-65
2021/03/06 11:02:29;;;;;;;7.87;4.07;;;9.00;99.90;;;;;;5126207;28;20170;-65
2021/03/06 11:05:34;;;;;;;5.90;4.33;;;9.10;99.90;;;;;;5126681;28;20167;-66
2021/03/06 11:08:18;;;;;;;9.90;5.07;;;9.10;99.90;;;;;;5063537;28;20168;-65
2021/03/06 11:10:47;;;;;;;6.97;4.60;;;9.20;99.90;;;;;;5060513;28;20169;-66
2021/03/06 11:13:13;;;;;;;5.53;3.90;;;9.10;99.90;;;;;;5063154;28;20247;-65
2021/03/06 11:15:56;;;;;;;5.43;4.53;;;9.00;99.90;;;;;;5063391;28;20169;-65
2021/03/06 11:18:22;;;;;;;4.87;4.17;;;9.20;99.90;;;;;;5063398;28;20165;-65
2021/03/06 11:20:49;;;;;;;4.57;3.87;;;9.20;99.90;;;;;;5060611;28;20191;-65
2021/03/06 11:23:15;;;;;;;6.73;4.40;;;9.50;99.90;;;;;;5062048;28;20177;-65
2021/03/06 11:25:41;;;;;;;5.03;3.90;;;9.70;99.90;;;;;;5062661;28;20181;-66
2021/03/06 11:28:09;;;;;;;4.90;4.40;;;9.90;99.90;;;;;;5062686;28;20239;-65
2021/03/06 11:30:40;;;;;;;8.47;4.27;;;10.00;99.90;;;;;;5059942;28;20268;-65
2021/03/06 11:33:08;;;;;;;5.07;3.75;;;10.20;99.90;;;;;;5061487;28;20439;-65
2021/03/06 11:35:34;;;;;;;8.47;4.63;;;10.40;99.90;;;;;;5046098;28;20283;-65
2021/03/06 11:38:00;;;;;;;11.67;4.20;;;10.50;99.90;;;;;;5075483;28;20162;-66
2021/03/06 11:40:31;;;;;;;6.03;4.33;;;10.50;99.90;;;;;;5123223;28;20186;-65
2021/03/06 11:42:58;;;;;;;4.83;4.30;;;10.30;99.90;;;;;;5125890;28;20179;-65
2021/03/06 11:45:24;;;;;;;4.93;4.17;;;10.50;99.90;;;;;;5125891;28;20167;-65
2021/03/06 11:47:51;;;;;;;7.33;4.40;;;10.60;99.90;;;;;;5126241;28;20166;-66
2021/03/06 11:50:20;;;;;;;5.13;4.40;;;10.50;99.90;;;;;;5123328;28;20707;-66
2021/03/06 11:52:46;;;;;;;4.47;4.00;;;10.40;99.90;;;;;;5126014;28;20198;-65
2021/03/06 11:55:12;;;;;;;4.87;4.03;;;10.70;99.90;;;;;;5125745;28;20167;-65
2021/03/06 11:57:39;;;;;;;7.43;4.83;;;10.90;99.90;;;;;;5125801;28;20226;-66
2021/03/06 12:00:10;;;;;;;6.70;4.10;;;11.00;99.90;;;;;;5123512;28;20155;-65
2021/03/06 12:02:36;;;;;;;9.23;4.17;;;10.70;99.90;;;;;;5125861;28;20183;-66
2021/03/06 12:05:03;;;;;;;5.57;3.90;;;11.00;99.90;;;;;;5125982;28;20246;-66
2021/03/06 12:07:29;;;;;;;4.83;4.20;;;11.20;99.90;;;;;;5125774;28;20169;-66
2021/03/06 12:09:55;;;;;;;7.40;3.77;;;11.30;99.90;;;;;;5123103;28;20342;-66
2021/03/06 12:12:20;;;;;;;7.10;4.43;;;11.40;99.90;;;;;;5125368;28;20235;-66
2021/03/06 12:14:46;;;;;;;6.20;4.23;;;11.50;99.90;;;;;;5125081;28;20265;-66
2021/03/06 12:17:11;;;;;;;6.33;3.80;;;11.20;99.90;;;;;;5125723;28;20215;-66
2021/03/06 12:19:38;;;;;;;5.77;3.83;;;11.20;99.90;;;;;;5124486;28;20230;-66
2021/03/06 12:22:04;;;;;;;7.67;4.00;;;11.20;99.90;;;;;;5124376;28;20151;-67
2021/03/06 12:24:29;;;;;;;8.03;3.53;;;11.30;99.90;;;;;;5125194;28;20599;-66
2021/03/06 12:26:55;;;;;;;5.43;4.10;;;11.50;99.90;;;;;;5124593;28;20222;-64
2021/03/06 12:29:21;;;;;;;5.83;3.90;;;11.70;99.90;;;;;;5125699;28;20163;-64
2021/03/06 12:31:47;;;;;;;5.77;4.13;;;11.60;99.90;;;;;;5121673;28;20166;-64
2021/03/06 12:34:14;;;;;;;5.17;4.10;;;11.50;99.90;;;;;;5127266;28;20195;-63
2021/03/06 12:36:40;;;;;;;5.97;3.53;;;11.60;99.90;;;;;;5129116;28;20208;-63
2021/03/06 12:39:06;;;;;;;5.70;3.90;;;11.70;99.90;;;;;;5129150;28;20637;-63
2021/03/06 12:41:32;;;;;;;3.80;3.50;;;11.60;99.90;;;;;;5126676;28;20162;-63
2021/03/06 12:43:58;;;;;;;8.23;3.42;;;11.80;99.90;;;;;;5129096;28;20186;-64
2021/03/06 12:46:24;;;;;;;8.30;3.58;;;12.00;99.90;;;;;;5129688;28;20177;-64
2021/03/06 12:48:53;;;;;;;5.70;3.65;;;12.30;99.90;;;;;;5129449;28;20190;-64
2021/03/06 12:51:19;;;;;;;6.10;3.88;;;12.50;99.90;;;;;;5126527;28;20194;-65
2021/03/06 12:53:46;;;;;;;8.55;3.67;;;12.30;99.90;;;;;;5128471;28;20247;-64